Time;durP1;ratioP1;P1;durP2;ratioP2;P2;SDS_P1;SDS_P2;PMS_P1;PMS_P2;Temp;Humidity;BMP_temperature;BMP_pressure;BME280_temperature;BME280_humidity;BME280_pressure;Samples;Min_cycle;Max_cycle;Signal;HPM_P1;HPM_P2
2023/03/31 00:00:56;;;;;;;7.07;3.93;;;8.40;99.90;;;;;;4994858;28;20656;-76
2023/03/31 00:03:25;;;;;;;11.17;3.90;;;8.40;99.90;;;;;;4994992;28;20213;-76
2023/03/31 00:05:57;;;;;;;7.00;3.73;;;8.40;99.90;;;;;;4995436;28;20616;-77
2023/03/31 00:08:28;;;;;;;9.23;4.40;;;8.30;99.90;;;;;;4995448;28;20268;-74
2023/03/31 00:11:00;;;;;;;7.90;3.73;;;8.30;99.90;;;;;;4995160;28;20305;-76
2023/03/31 00:13:29;;;;;;;6.87;4.17;;;8.30;99.90;;;;;;4995760;28;20301;-78
2023/03/31 00:15:58;;;;;;;7.57;4.20;;;8.40;99.90;;;;;;4994481;28;20708;-76
2023/03/31 00:18:28;;;;;;;6.87;3.83;;;8.40;99.90;;;;;;5013502;28;20228;-76
2023/03/31 00:21:07;;;;;;;6.20;4.20;;;8.30;99.90;;;;;;5013259;28;20635;-76
2023/03/31 00:23:36;;;;;;;9.47;4.90;;;8.40;99.90;;;;;;4994480;28;20674;-76
2023/03/31 00:26:04;;;;;;;9.47;4.30;;;8.40;99.90;;;;;;4994811;28;20221;-76
2023/03/31 00:28:34;;;;;;;9.37;4.53;;;8.40;99.90;;;;;;4994550;28;20253;-75
2023/03/31 00:31:02;;;;;;;9.53;4.97;;;8.50;99.90;;;;;;4994590;28;20293;-76
2023/03/31 00:33:30;;;;;;;8.87;4.57;;;8.50;99.90;;;;;;5012203;28;20217;-75
2023/03/31 00:36:00;;;;;;;12.93;4.70;;;8.60;99.90;;;;;;5014085;28;20213;-76
2023/03/31 00:38:29;;;;;;;11.33;5.20;;;8.60;99.90;;;;;;5013781;28;20201;-76
2023/03/31 00:41:00;;;;;;;10.23;5.00;;;8.70;99.90;;;;;;5006851;28;20670;-76
2023/03/31 00:43:31;;;;;;;10.17;5.00;;;8.70;99.90;;;;;;4994346;28;20664;-75
2023/03/31 00:46:07;;;;;;;10.27;5.13;;;8.70;99.90;;;;;;4994730;28;20229;-75
2023/03/31 00:48:38;;;;;;;7.57;4.60;;;8.70;99.90;;;;;;4995003;28;20206;-76
2023/03/31 00:51:07;;;;;;;8.53;4.93;;;8.70;99.90;;;;;;4994835;28;20704;-74
2023/03/31 00:53:37;;;;;;;11.93;4.80;;;8.60;99.90;;;;;;4994198;28;20214;-75
2023/03/31 00:56:12;;;;;;;9.43;4.50;;;8.70;99.90;;;;;;4994770;28;20210;-74
2023/03/31 00:58:43;;;;;;;9.43;4.70;;;8.70;99.90;;;;;;4995334;28;20288;-76
2023/03/31 01:01:18;;;;;;;8.67;4.90;;;8.70;99.90;;;;;;4994287;28;20221;-76
2023/03/31 01:03:47;;;;;;;7.97;4.87;;;8.70;99.90;;;;;;4994366;28;20199;-76
2023/03/31 01:06:18;;;;;;;8.10;4.73;;;8.70;99.90;;;;;;4994476;28;20214;-75
2023/03/31 01:08:48;;;;;;;9.37;5.17;;;8.70;99.90;;;;;;4994015;28;20687;-77
2023/03/31 01:11:20;;;;;;;10.33;5.10;;;8.80;99.90;;;;;;4994201;28;20302;-76
2023/03/31 01:13:51;;;;;;;8.60;4.70;;;8.80;99.90;;;;;;4993772;28;20214;-75
2023/03/31 01:16:19;;;;;;;9.73;4.80;;;8.80;99.90;;;;;;5018560;28;20303;-76
2023/03/31 01:18:48;;;;;;;15.27;4.87;;;8.80;99.90;;;;;;5009703;28;20242;-75
2023/03/31 01:21:58;;;;;;;8.53;4.80;;;8.90;99.90;;;;;;4993680;28;20214;-75
2023/03/31 01:25:00;;;;;;;9.00;4.80;;;8.80;99.90;;;;;;4988518;28;20257;-77
2023/03/31 01:27:49;;;;;;;7.37;4.60;;;8.90;99.90;;;;;;4993138;28;20246;-75
2023/03/31 01:30:56;;;;;;;11.33;5.10;;;8.90;99.90;;;;;;4993390;28;20695;-74
2023/03/31 01:33:55;;;;;;;10.47;4.93;;;8.90;99.90;;;;;;4993293;28;20214;-75
2023/03/31 01:37:04;;;;;;;8.43;4.23;;;8.90;99.90;;;;;;4979020;28;20301;-76
2023/03/31 01:40:17;;;;;;;10.03;4.50;;;9.00;99.90;;;;;;4975986;28;20214;-77
2023/03/31 01:42:52;;;;;;;9.50;4.50;;;9.00;99.90;;;;;;4992999;28;20206;-78
2023/03/31 01:45:31;;;;;;;7.93;4.53;;;9.00;99.90;;;;;;5000499;28;20236;-76
2023/03/31 01:48:05;;;;;;;9.37;5.23;;;9.00;99.90;;;;;;5013038;28;20205;-76
2023/03/31 01:50:38;;;;;;;10.47;4.63;;;9.00;99.90;;;;;;5012992;28;20244;-76
2023/03/31 01:53:14;;;;;;;11.17;4.77;;;9.00;99.90;;;;;;5012428;28;20284;-77
2023/03/31 01:55:50;;;;;;;8.27;5.10;;;9.00;99.90;;;;;;4994658;28;20213;-77
2023/03/31 01:58:22;;;;;;;10.93;4.90;;;8.90;99.90;;;;;;4995139;28;20583;-77
2023/03/31 02:00:55;;;;;;;9.67;4.93;;;9.00;99.90;;;;;;5015334;28;20288;-77
2023/03/31 02:03:28;;;;;;;9.43;4.90;;;8.90;99.90;;;;;;5012397;28;20204;-76
2023/03/31 02:06:00;;;;;;;10.33;5.17;;;8.90;99.90;;;;;;5009406;28;20218;-77
2023/03/31 02:08:32;;;;;;;8.73;4.80;;;8.90;99.90;;;;;;4993045;28;20264;-74
2023/03/31 02:11:02;;;;;;;7.80;4.70;;;8.80;99.90;;;;;;4992785;28;20278;-75
2023/03/31 02:13:33;;;;;;;8.33;5.10;;;8.80;99.90;;;;;;4993197;28;20559;-75
2023/03/31 02:16:06;;;;;;;7.23;4.53;;;8.70;99.90;;;;;;4996720;28;20214;-77
2023/03/31 02:18:40;;;;;;;12.10;5.27;;;8.60;99.90;;;;;;4992988;28;20825;-76
2023/03/31 02:21:09;;;;;;;9.43;4.97;;;8.50;99.90;;;;;;4992963;28;20644;-76
2023/03/31 02:23:38;;;;;;;9.50;4.97;;;8.50;99.90;;;;;;4992217;28;20214;-75
2023/03/31 02:26:14;;;;;;;7.90;4.80;;;8.50;99.90;;;;;;4992898;28;20226;-74
2023/03/31 02:28:45;;;;;;;6.87;4.80;;;8.50;99.90;;;;;;4994913;28;20197;-75
2023/03/31 02:31:25;;;;;;;9.37;5.30;;;8.40;99.90;;;;;;5020320;28;20634;-76
2023/03/31 02:33:54;;;;;;;8.37;4.80;;;8.40;99.90;;;;;;5012266;28;20216;-74
2023/03/31 02:36:22;;;;;;;7.00;4.70;;;8.40;99.90;;;;;;4992920;28;20439;-75
2023/03/31 02:38:54;;;;;;;8.03;4.60;;;8.40;99.90;;;;;;4993432;28;20628;-76
2023/03/31 02:41:24;;;;;;;7.70;4.97;;;8.40;99.90;;;;;;4992913;28;20577;-76
2023/03/31 02:43:52;;;;;;;8.47;4.87;;;8.30;99.90;;;;;;4992060;28;20216;-76
2023/03/31 02:46:20;;;;;;;8.77;5.23;;;8.30;99.90;;;;;;4992449;28;20244;-77
2023/03/31 02:48:51;;;;;;;10.90;4.87;;;8.30;99.90;;;;;;4992430;28;20218;-78
2023/03/31 02:51:53;;;;;;;10.07;4.80;;;8.30;99.90;;;;;;4992362;28;20253;-77
2023/03/31 02:54:51;;;;;;;8.20;5.43;;;8.30;99.90;;;;;;4992588;28;20205;-75
2023/03/31 02:57:56;;;;;;;9.73;4.90;;;8.30;99.90;;;;;;4992605;28;20210;-77
2023/03/31 03:00:33;;;;;;;9.57;5.00;;;8.40;99.90;;;;;;4992459;28;20238;-76
2023/03/31 03:03:13;;;;;;;10.43;5.17;;;8.40;99.90;;;;;;4992300;28;20268;-75
2023/03/31 03:05:53;;;;;;;7.10;4.97;;;8.40;99.90;;;;;;4992671;28;20218;-76
2023/03/31 03:08:29;;;;;;;7.83;4.87;;;8.30;99.90;;;;;;4997816;28;20198;-77
2023/03/31 03:11:06;;;;;;;9.37;5.30;;;8.40;99.90;;;;;;5000818;28;20245;-77
2023/03/31 03:13:47;;;;;;;8.73;4.57;;;8.30;99.90;;;;;;5005102;28;20675;-77
2023/03/31 03:16:20;;;;;;;10.87;5.30;;;8.40;99.90;;;;;;5011687;28;20308;-77
2023/03/31 03:18:56;;;;;;;7.40;4.97;;;8.40;99.90;;;;;;5003713;28;20206;-76
2023/03/31 03:21:25;;;;;;;8.80;5.10;;;8.40;99.90;;;;;;4992496;28;20292;-76
2023/03/31 03:23:54;;;;;;;8.87;4.63;;;8.40;99.90;;;;;;4993934;28;20210;-76
2023/03/31 03:26:23;;;;;;;8.83;4.77;;;8.50;99.90;;;;;;4995616;28;20225;-75
2023/03/31 03:28:53;;;;;;;6.43;4.63;;;8.50;99.90;;;;;;4995671;28;20210;-77
2023/03/31 03:31:22;;;;;;;8.27;4.57;;;8.50;99.90;;;;;;4995829;28;20208;-76
2023/03/31 03:33:51;;;;;;;7.43;4.93;;;8.60;99.90;;;;;;4995928;28;20225;-73
2023/03/31 03:36:20;;;;;;;9.60;5.17;;;8.60;99.90;;;;;;4995877;28;20206;-78
2023/03/31 03:38:48;;;;;;;7.67;5.10;;;8.60;99.90;;;;;;4996106;28;20305;-77
2023/03/31 03:41:16;;;;;;;10.77;5.00;;;8.70;99.90;;;;;;4996147;28;20573;-76
2023/03/31 03:43:44;;;;;;;11.70;4.97;;;8.70;99.90;;;;;;4995873;28;20570;-78
2023/03/31 03:46:14;;;;;;;9.77;4.60;;;8.70;99.90;;;;;;4995971;28;20256;-77
2023/03/31 03:48:43;;;;;;;9.47;4.70;;;8.80;99.90;;;;;;4996817;28;20217;-77
2023/03/31 03:51:11;;;;;;;9.77;4.60;;;8.90;99.90;;;;;;5005100;28;20233;-77
2023/03/31 03:53:39;;;;;;;8.70;4.43;;;8.90;99.90;;;;;;4996629;28;20218;-77
2023/03/31 03:56:07;;;;;;;10.23;4.93;;;8.90;99.90;;;;;;5000674;28;20210;-79
2023/03/31 03:58:35;;;;;;;10.10;5.03;;;8.90;99.90;;;;;;4995677;28;20241;-76
2023/03/31 04:01:04;;;;;;;9.13;4.77;;;8.90;99.90;;;;;;4995893;28;20608;-77
2023/03/31 04:03:33;;;;;;;7.50;4.50;;;8.90;99.90;;;;;;4994611;28;20661;-78
2023/03/31 04:06:01;;;;;;;11.80;5.43;;;8.80;99.90;;;;;;5001954;28;20230;-76
2023/03/31 04:08:29;;;;;;;9.73;5.40;;;8.70;99.90;;;;;;5014825;28;20304;-76
2023/03/31 04:10:57;;;;;;;9.03;5.57;;;8.70;99.90;;;;;;5014292;28;20293;-76
2023/03/31 04:13:26;;;;;;;9.73;5.30;;;8.60;99.90;;;;;;5014519;28;20300;-77
2023/03/31 04:15:54;;;;;;;9.80;5.20;;;8.60;99.90;;;;;;5013002;28;20224;-76
2023/03/31 04:18:22;;;;;;;12.10;5.50;;;8.50;99.90;;;;;;5015071;28;20214;-75
2023/03/31 04:21:02;;;;;;;9.60;5.77;;;8.50;99.90;;;;;;5014551;28;20620;-79
2023/03/31 04:23:31;;;;;;;11.77;5.63;;;8.40;99.90;;;;;;5005407;28;20225;-79
2023/03/31 04:26:00;;;;;;;10.20;5.60;;;8.40;99.90;;;;;;4994899;28;20257;-78
2023/03/31 04:28:33;;;;;;;10.07;5.70;;;8.40;99.90;;;;;;4994787;28;20210;-78
2023/03/31 04:31:02;;;;;;;12.90;5.77;;;8.40;99.90;;;;;;4994720;28;20198;-76
2023/03/31 04:33:32;;;;;;;10.50;5.77;;;8.40;99.90;;;;;;4995127;28;20206;-78
2023/03/31 04:36:05;;;;;;;12.43;6.40;;;8.30;99.90;;;;;;4994340;28;20213;-79
2023/03/31 04:38:34;;;;;;;11.10;5.70;;;8.30;99.90;;;;;;5010922;28;20225;-79
2023/03/31 04:41:02;;;;;;;11.60;6.23;;;8.30;99.90;;;;;;5014341;28;20292;-78
2023/03/31 04:43:30;;;;;;;14.57;5.93;;;8.20;99.90;;;;;;5001632;28;20573;-76
2023/03/31 04:45:58;;;;;;;12.20;6.77;;;8.30;99.90;;;;;;4994577;28;20230;-78
2023/03/31 04:48:27;;;;;;;12.63;6.20;;;8.30;99.90;;;;;;4994642;28;20202;-76
2023/03/31 04:50:55;;;;;;;13.73;6.50;;;8.30;99.90;;;;;;4994550;28;20234;-77
2023/03/31 04:53:24;;;;;;;11.57;6.27;;;8.20;99.90;;;;;;5001033;28;20217;-77
2023/03/31 04:55:52;;;;;;;11.43;5.97;;;8.20;99.90;;;;;;5003196;28;20317;-79
2023/03/31 04:58:21;;;;;;;11.60;6.07;;;8.20;99.90;;;;;;5004498;28;20288;-77
2023/03/31 05:00:52;;;;;;;11.53;6.27;;;8.20;99.90;;;;;;5004828;28;20289;-76
2023/03/31 05:03:22;;;;;;;12.37;7.00;;;8.20;99.90;;;;;;5003916;28;20206;-80
2023/03/31 05:05:50;;;;;;;10.87;6.63;;;8.20;99.90;;;;;;5004709;28;20261;-77
2023/03/31 05:08:18;;;;;;;11.83;6.30;;;8.20;99.90;;;;;;5005055;28;20205;-78
2023/03/31 05:10:47;;;;;;;11.43;6.47;;;8.20;99.90;;;;;;5010060;28;20219;-74
2023/03/31 05:13:16;;;;;;;14.00;6.83;;;8.20;99.90;;;;;;5004277;28;20659;-76
2023/03/31 05:15:46;;;;;;;13.00;6.70;;;8.20;99.90;;;;;;5023505;28;20209;-77
2023/03/31 05:18:14;;;;;;;12.27;6.97;;;8.20;99.90;;;;;;5030836;28;20193;-76
2023/03/31 05:20:42;;;;;;;11.73;7.07;;;8.10;99.90;;;;;;5007556;28;20233;-78
2023/03/31 05:23:10;;;;;;;11.07;6.77;;;8.10;99.90;;;;;;4993704;28;20294;-77
2023/03/31 05:25:41;;;;;;;12.33;7.50;;;8.20;99.90;;;;;;4994210;28;20446;-78
2023/03/31 05:28:10;;;;;;;14.97;7.57;;;8.20;99.90;;;;;;4994040;28;20257;-81
2023/03/31 05:30:38;;;;;;;18.00;8.17;;;8.10;99.90;;;;;;4993492;28;20214;-79
2023/03/31 05:33:06;;;;;;;13.90;7.97;;;8.10;99.90;;;;;;4993920;28;20245;-77
2023/03/31 05:35:34;;;;;;;13.90;8.40;;;8.10;99.90;;;;;;4993793;28;20210;-76
2023/03/31 05:38:04;;;;;;;12.47;7.87;;;8.00;99.90;;;;;;4994092;28;20261;-77
2023/03/31 05:40:32;;;;;;;17.33;7.63;;;8.00;99.90;;;;;;4993592;28;20221;-78
2023/03/31 05:43:00;;;;;;;14.70;7.33;;;8.00;99.90;;;;;;4993516;28;20210;-78
2023/03/31 05:45:29;;;;;;;13.63;7.60;;;8.00;99.90;;;;;;4993639;28;20292;-77
2023/03/31 05:47:57;;;;;;;10.47;7.70;;;8.00;99.90;;;;;;4993454;28;20771;-77
2023/03/31 05:50:26;;;;;;;13.57;7.97;;;8.00;99.90;;;;;;4993458;28;20248;-78
2023/03/31 05:52:54;;;;;;;15.17;7.67;;;8.00;99.90;;;;;;4993273;28;20276;-77
2023/03/31 05:55:22;;;;;;;15.50;7.70;;;7.90;99.90;;;;;;4993380;28;20673;-79
2023/03/31 05:57:50;;;;;;;16.27;7.70;;;8.00;99.90;;;;;;4993813;28;20213;-78
2023/03/31 06:00:18;;;;;;;11.70;7.50;;;8.00;99.90;;;;;;4994016;28;20658;-77
2023/03/31 06:02:50;;;;;;;10.77;8.00;;;8.00;99.90;;;;;;4993991;28;20706;-77
2023/03/31 06:05:18;;;;;;;14.30;8.27;;;8.00;99.90;;;;;;4993894;28;20234;-76
2023/03/31 06:07:46;;;;;;;12.77;8.60;;;8.00;99.90;;;;;;4993441;28;20324;-77
2023/03/31 06:10:14;;;;;;;12.00;7.77;;;8.00;99.90;;;;;;4998261;28;20656;-76
2023/03/31 06:12:42;;;;;;;16.10;8.00;;;8.00;99.90;;;;;;4993233;28;20214;-77
2023/03/31 06:15:11;;;;;;;12.77;8.07;;;8.00;99.90;;;;;;4993587;28;20684;-79
2023/03/31 06:17:39;;;;;;;14.13;8.07;;;8.00;99.90;;;;;;4993483;28;20206;-78
2023/03/31 06:20:10;;;;;;;11.17;7.33;;;8.20;99.90;;;;;;4993104;28;20222;-77
2023/03/31 06:22:53;;;;;;;15.23;8.10;;;8.20;99.90;;;;;;4993156;28;20557;-76
2023/03/31 06:25:22;;;;;;;11.97;7.03;;;8.30;99.90;;;;;;4993570;28;20555;-78
2023/03/31 06:27:50;;;;;;;13.30;6.53;;;8.40;99.90;;;;;;5001768;28;20312;-78
2023/03/31 06:30:18;;;;;;;11.00;6.93;;;8.40;99.90;;;;;;5012680;28;20245;-79
2023/03/31 06:32:46;;;;;;;14.23;6.70;;;8.50;99.90;;;;;;5009630;28;20233;-78
2023/03/31 06:35:16;;;;;;;10.33;6.67;;;8.70;99.90;;;;;;4993142;28;20206;-77
2023/03/31 06:37:44;;;;;;;10.03;6.70;;;8.80;99.90;;;;;;4992421;28;20744;-77
2023/03/31 06:40:16;;;;;;;8.53;6.37;;;8.90;99.90;;;;;;4991684;28;20277;-77
2023/03/31 06:42:44;;;;;;;9.80;6.20;;;9.00;99.90;;;;;;4991152;28;20245;-78
2023/03/31 06:45:12;;;;;;;12.20;6.80;;;9.00;99.90;;;;;;4991150;28;20306;-74
2023/03/31 06:47:41;;;;;;;12.43;6.33;;;9.00;99.90;;;;;;4991217;28;20236;-77
2023/03/31 06:50:10;;;;;;;10.07;5.83;;;9.00;99.90;;;;;;4990989;28;20226;-78
2023/03/31 06:52:40;;;;;;;10.60;6.50;;;9.10;99.90;;;;;;4992584;28;20210;-78
2023/03/31 06:55:11;;;;;;;11.90;6.30;;;9.20;99.90;;;;;;4993353;28;20203;-77
2023/03/31 06:57:40;;;;;;;10.40;5.90;;;9.20;99.90;;;;;;4992936;28;20770;-77
2023/03/31 07:00:09;;;;;;;8.37;5.40;;;9.30;99.90;;;;;;4997005;28;20213;-76
2023/03/31 07:02:38;;;;;;;10.33;5.60;;;9.60;99.90;;;;;;4997491;28;20824;-76
2023/03/31 07:05:07;;;;;;;11.63;5.47;;;9.70;99.90;;;;;;4998063;28;20212;-76
2023/03/31 07:07:36;;;;;;;11.07;5.70;;;9.80;99.90;;;;;;5008157;28;20233;-76
2023/03/31 07:10:06;;;;;;;13.53;6.40;;;9.70;99.90;;;;;;5000931;28;20221;-77
2023/03/31 07:12:34;;;;;;;7.63;5.87;;;9.60;99.90;;;;;;4997564;28;20615;-75
2023/03/31 07:15:03;;;;;;;9.60;6.20;;;9.60;99.90;;;;;;4997156;28;20743;-76
2023/03/31 07:17:31;;;;;;;10.07;6.70;;;9.40;99.90;;;;;;4997004;28;20230;-76
2023/03/31 07:19:59;;;;;;;9.67;6.17;;;9.30;99.90;;;;;;4997041;28;20218;-77
2023/03/31 07:22:27;;;;;;;11.87;6.90;;;9.30;99.90;;;;;;4996773;28;20233;-79
2023/03/31 07:24:55;;;;;;;10.50;6.40;;;9.20;99.90;;;;;;4997359;28;20217;-76
2023/03/31 07:27:26;;;;;;;9.43;6.50;;;9.20;99.90;;;;;;4997323;28;20210;-77
2023/03/31 07:29:54;;;;;;;10.43;6.67;;;9.10;99.90;;;;;;4997547;28;20256;-76
2023/03/31 07:32:22;;;;;;;12.50;6.73;;;9.10;99.90;;;;;;4997652;28;20292;-74
2023/03/31 07:34:51;;;;;;;11.07;7.30;;;9.00;99.90;;;;;;4997960;28;20264;-78
2023/03/31 07:37:19;;;;;;;12.00;7.40;;;9.00;99.90;;;;;;4997179;28;20210;-78
2023/03/31 07:39:48;;;;;;;11.20;7.40;;;9.00;99.90;;;;;;4997241;28;20222;-76
2023/03/31 07:42:16;;;;;;;18.40;13.23;;;8.90;99.90;;;;;;4996418;28;20277;-75
2023/03/31 07:44:46;;;;;;;14.47;11.67;;;8.90;99.90;;;;;;4997131;28;20253;-76
2023/03/31 07:47:14;;;;;;;13.57;7.50;;;8.90;99.90;;;;;;4996977;28;20220;-76
2023/03/31 07:49:42;;;;;;;15.00;12.43;;;8.80;99.90;;;;;;4996309;28;20234;-77
2023/03/31 07:52:10;;;;;;;23.23;17.50;;;8.90;99.90;;;;;;4996179;28;20214;-75
2023/03/31 07:54:38;;;;;;;18.17;12.40;;;8.90;99.90;;;;;;4996850;28;20220;-76
2023/03/31 07:57:07;;;;;;;13.33;9.10;;;8.90;99.90;;;;;;4997823;28;20268;-75
2023/03/31 07:59:36;;;;;;;9.07;6.77;;;8.90;99.90;;;;;;5002797;28;20210;-77
2023/03/31 08:02:05;;;;;;;10.93;7.10;;;8.90;99.90;;;;;;5009124;28;20296;-78
2023/03/31 08:04:34;;;;;;;11.50;6.80;;;9.00;99.90;;;;;;5016416;28;20218;-76
2023/03/31 08:07:03;;;;;;;11.23;6.40;;;9.10;99.90;;;;;;5016394;28;20210;-79
2023/03/31 08:09:31;;;;;;;9.83;6.60;;;9.10;99.90;;;;;;5007026;28;20317;-75
2023/03/31 08:11:59;;;;;;;10.00;6.67;;;9.20;99.90;;;;;;5001621;28;20214;-76
2023/03/31 08:14:27;;;;;;;11.37;6.93;;;9.20;99.90;;;;;;5002173;28;20277;-75
2023/03/31 08:17:09;;;;;;;9.40;6.20;;;9.30;99.90;;;;;;5014529;28;20222;-76
2023/03/31 08:19:38;;;;;;;11.97;6.60;;;9.30;99.90;;;;;;5015474;28;20237;-73
2023/03/31 08:22:06;;;;;;;9.40;5.73;;;9.40;99.90;;;;;;5021664;28;20630;-78
2023/03/31 08:24:34;;;;;;;10.53;5.97;;;9.60;99.90;;;;;;5021091;28;20734;-76
2023/03/31 08:27:02;;;;;;;11.17;5.93;;;9.60;99.90;;;;;;5013550;28;20297;-74
2023/03/31 08:29:37;;;;;;;8.60;5.87;;;9.90;99.90;;;;;;5003830;28;20593;-73
2023/03/31 08:32:06;;;;;;;11.20;5.20;;;10.00;99.90;;;;;;5002378;28;20241;-74
2023/03/31 08:34:36;;;;;;;9.10;5.40;;;10.10;99.90;;;;;;5002530;28;20210;-72
2023/03/31 08:37:05;;;;;;;9.57;5.43;;;10.20;99.90;;;;;;5001471;28;20285;-75
2023/03/31 08:39:36;;;;;;;11.43;6.53;;;10.20;99.90;;;;;;4999588;28;20565;-74
2023/03/31 08:42:08;;;;;;;8.67;5.13;;;10.40;99.90;;;;;;5000331;28;20261;-75
2023/03/31 08:44:44;;;;;;;7.87;4.87;;;10.50;99.90;;;;;;4998268;28;20203;-76
2023/03/31 08:47:16;;;;;;;8.17;4.80;;;10.90;99.90;;;;;;4998158;28;20220;-74
2023/03/31 08:49:50;;;;;;;7.33;5.00;;;11.00;99.90;;;;;;4998356;28;20325;-75
2023/03/31 08:52:23;;;;;;;8.40;4.90;;;11.10;99.90;;;;;;4998575;28;20624;-73
2023/03/31 08:54:55;;;;;;;7.20;4.63;;;11.20;99.90;;;;;;5000032;28;20218;-75
2023/03/31 08:57:28;;;;;;;6.80;4.77;;;11.20;99.90;;;;;;5001127;28;20281;-77
2023/03/31 08:59:57;;;;;;;8.67;5.10;;;11.20;99.90;;;;;;5003731;28;20202;-76
2023/03/31 09:02:33;;;;;;;7.47;4.77;;;11.10;99.90;;;;;;4997767;28;20214;-75
2023/03/31 09:05:17;;;;;;;8.07;5.33;;;11.30;99.90;;;;;;5009779;28;20305;-76
2023/03/31 09:07:55;;;;;;;7.70;5.00;;;11.10;99.90;;;;;;5016623;28;20373;-77
2023/03/31 09:10:38;;;;;;;7.30;4.77;;;11.10;99.90;;;;;;4997499;28;20304;-75
2023/03/31 09:13:21;;;;;;;8.63;5.30;;;10.90;99.90;;;;;;4997528;28;20230;-75
2023/03/31 09:15:54;;;;;;;8.30;5.17;;;10.70;99.90;;;;;;4996991;28;20275;-76
2023/03/31 09:18:29;;;;;;;8.53;4.50;;;10.80;99.90;;;;;;4997026;28;20593;-77
2023/03/31 09:21:06;;;;;;;8.77;4.33;;;10.90;99.90;;;;;;4997239;28;20233;-76
2023/03/31 09:23:39;;;;;;;7.43;4.10;;;11.00;99.90;;;;;;4997436;28;20194;-75
2023/03/31 09:26:25;;;;;;;7.80;4.00;;;11.20;99.90;;;;;;4997505;28;20210;-75
2023/03/31 09:28:57;;;;;;;7.40;4.03;;;11.30;99.90;;;;;;4995998;28;20230;-76
2023/03/31 09:31:26;;;;;;;7.87;3.70;;;11.40;99.90;;;;;;4996936;28;20213;-76
2023/03/31 09:34:01;;;;;;;6.20;3.67;;;11.50;99.90;;;;;;4995680;28;20569;-74
2023/03/31 09:36:32;;;;;;;7.57;4.00;;;11.60;99.90;;;;;;4994675;28;20727;-75
2023/03/31 09:39:00;;;;;;;7.23;3.80;;;11.80;99.90;;;;;;4995652;28;20554;-75
2023/03/31 09:41:28;;;;;;;7.53;3.80;;;12.30;99.90;;;;;;4996398;28;20301;-75
2023/03/31 09:44:00;;;;;;;8.57;3.90;;;12.70;99.90;;;;;;4996671;28;20195;-75
2023/03/31 09:46:33;;;;;;;6.60;3.33;;;14.00;99.90;;;;;;5014542;28;20660;-75
2023/03/31 09:49:05;;;;;;;5.87;2.97;;;15.90;99.90;;;;;;5015713;28;20229;-77
2023/03/31 09:51:36;;;;;;;5.50;3.00;;;17.60;99.90;;;;;;5015733;28;20253;-77
2023/03/31 09:54:12;;;;;;;6.93;3.10;;;18.10;99.90;;;;;;5013926;28;20581;-77
2023/03/31 09:56:47;;;;;;;5.90;2.93;;;17.90;99.90;;;;;;5015036;28;20195;-75
2023/03/31 09:59:18;;;;;;;4.40;2.70;;;17.60;99.90;;;;;;5015403;28;20705;-74
2023/03/31 10:01:49;;;;;;;6.17;2.67;;;18.30;99.90;;;;;;5015473;28;20530;-74
2023/03/31 10:04:22;;;;;;;5.30;2.60;;;18.80;99.90;;;;;;5004489;28;20754;-75
2023/03/31 10:06:53;;;;;;;4.33;2.73;;;20.00;99.90;;;;;;4996626;28;20301;-73
2023/03/31 10:09:25;;;;;;;6.03;2.50;;;20.50;99.90;;;;;;4996519;28;20266;-74
2023/03/31 10:11:58;;;;;;;3.73;2.37;;;20.80;99.90;;;;;;4997354;28;20230;-74
2023/03/31 10:14:32;;;;;;;5.00;2.23;;;20.90;99.90;;;;;;4994792;28;20203;-75
2023/03/31 10:17:05;;;;;;;3.53;2.30;;;22.10;99.90;;;;;;4996405;28;20198;-74
2023/03/31 10:19:36;;;;;;;2.87;2.00;;;21.80;96.40;;;;;;4995631;28;20676;-74
2023/03/31 10:22:14;;;;;;;3.47;2.30;;;21.50;97.10;;;;;;4996006;28;20735;-74
2023/03/31 10:24:44;;;;;;;5.70;2.00;;;20.30;97.40;;;;;;4995716;28;20237;-75
2023/03/31 10:27:20;;;;;;;3.30;1.93;;;19.00;99.20;;;;;;4996454;28;20735;-73
2023/03/31 10:29:52;;;;;;;4.00;1.97;;;18.90;99.90;;;;;;4995701;28;20229;-74
2023/03/31 10:32:27;;;;;;;2.70;2.00;;;19.10;99.90;;;;;;4998076;28;20275;-74
2023/03/31 10:34:57;;;;;;;2.93;1.80;;;20.00;99.90;;;;;;5018153;28;20193;-75
2023/03/31 10:37:28;;;;;;;3.50;1.90;;;21.00;99.80;;;;;;5019138;28;20245;-75
2023/03/31 10:40:04;;;;;;;3.27;2.10;;;20.90;96.70;;;;;;5003645;28;20241;-76
2023/03/31 10:42:33;;;;;;;5.73;2.03;;;19.70;96.30;;;;;;4998298;28;20222;-73
2023/03/31 10:45:13;;;;;;;2.90;2.30;;;18.60;99.90;;;;;;4998432;28;20214;-74
2023/03/31 10:47:58;;;;;;;5.60;2.20;;;18.40;99.90;;;;;;4998537;28;20221;-74
2023/03/31 10:50:29;;;;;;;4.67;2.37;;;18.80;99.90;;;;;;5000454;28;20241;-74
2023/03/31 10:53:04;;;;;;;3.23;2.30;;;19.10;99.80;;;;;;4999578;28;20190;-74
2023/03/31 10:55:37;;;;;;;5.03;2.70;;;19.00;99.90;;;;;;4999437;28;20206;-75
2023/03/31 10:58:18;;;;;;;4.77;2.70;;;19.80;99.90;;;;;;5000415;28;20221;-74
2023/03/31 11:01:02;;;;;;;6.43;3.03;;;20.00;97.40;;;;;;4999213;28;20202;-74
2023/03/31 11:04:00;;;;;;;4.80;2.50;;;19.60;97.30;;;;;;5017790;28;20198;-76
2023/03/31 11:06:39;;;;;;;3.93;2.43;;;18.70;97.50;;;;;;5006500;28;20233;-74
2023/03/31 11:09:23;;;;;;;5.83;2.33;;;17.80;99.90;;;;;;4998304;28;20285;-75
2023/03/31 11:12:02;;;;;;;6.33;2.60;;;17.40;99.90;;;;;;4997923;28;20290;-73
2023/03/31 11:14:41;;;;;;;5.43;2.53;;;16.90;99.90;;;;;;4998228;28;20217;-73
2023/03/31 11:17:24;;;;;;;4.37;2.30;;;16.70;99.90;;;;;;4997923;28;20194;-71
2023/03/31 11:19:58;;;;;;;6.83;3.40;;;16.10;99.90;;;;;;4997704;28;20211;-75
2023/03/31 11:22:34;;;;;;;3.00;2.27;;;15.80;99.90;;;;;;4998562;28;20637;-75
2023/03/31 11:25:16;;;;;;;4.63;2.37;;;15.50;99.90;;;;;;4997818;28;20208;-74
2023/03/31 11:28:06;;;;;;;3.00;2.00;;;15.40;99.90;;;;;;4997692;28;20195;-73
2023/03/31 11:30:43;;;;;;;3.57;2.20;;;15.00;99.90;;;;;;4997526;28;20210;-73
2023/03/31 11:33:27;;;;;;;3.20;2.13;;;14.60;99.90;;;;;;4989381;28;20735;-73
2023/03/31 11:36:07;;;;;;;6.93;2.23;;;14.40;99.90;;;;;;4998177;28;20672;-76
2023/03/31 11:38:53;;;;;;;4.93;2.10;;;14.20;99.90;;;;;;4997867;28;20293;-77
2023/03/31 11:41:30;;;;;;;2.73;1.50;;;14.00;99.90;;;;;;4998436;28;20206;-73
2023/03/31 11:44:04;;;;;;;4.93;2.10;;;13.70;99.90;;;;;;5001315;28;20244;-77
2023/03/31 11:46:39;;;;;;;3.53;1.80;;;12.90;99.90;;;;;;5000835;28;20676;-75
2023/03/31 11:49:15;;;;;;;2.60;1.70;;;11.80;99.90;;;;;;4997699;28;20220;-74
2023/03/31 11:51:50;;;;;;;3.80;1.90;;;11.50;99.90;;;;;;4997741;28;20226;-78
2023/03/31 11:54:24;;;;;;;3.73;1.70;;;11.30;99.90;;;;;;4998136;28;20218;-73
2023/03/31 11:56:56;;;;;;;4.60;1.73;;;11.40;99.90;;;;;;4996977;28;20293;-74
2023/03/31 11:59:28;;;;;;;5.63;1.90;;;11.50;99.90;;;;;;4996319;28;20237;-76
2023/03/31 12:02:04;;;;;;;6.53;1.97;;;11.60;99.90;;;;;;5015641;28;20190;-75
2023/03/31 12:04:36;;;;;;;4.73;1.87;;;11.70;99.90;;;;;;5015751;28;20304;-76
2023/03/31 12:07:13;;;;;;;3.33;1.80;;;11.90;99.90;;;;;;5015661;28;20644;-76
2023/03/31 12:09:51;;;;;;;3.97;1.60;;;12.00;99.90;;;;;;4996230;28;20694;-75
2023/03/31 12:12:24;;;;;;;3.63;1.70;;;12.20;99.90;;;;;;4979234;28;20190;-75
2023/03/31 12:14:56;;;;;;;2.20;1.40;;;12.30;99.90;;;;;;5016210;28;20221;-77
2023/03/31 12:17:28;;;;;;;3.83;1.80;;;12.30;99.90;;;;;;5011242;28;20199;-75
2023/03/31 12:19:59;;;;;;;2.70;1.43;;;12.50;99.90;;;;;;4997070;28;20202;-76
2023/03/31 12:22:31;;;;;;;2.40;1.40;;;12.60;99.90;;;;;;4996967;28;20199;-75
2023/03/31 12:25:02;;;;;;;2.60;1.60;;;12.80;99.90;;;;;;4996769;28;20775;-73
2023/03/31 12:27:38;;;;;;;3.20;1.60;;;12.90;99.90;;;;;;5005575;28;20300;-76
2023/03/31 12:30:12;;;;;;;2.93;1.40;;;12.90;99.90;;;;;;5017122;28;20217;-75
2023/03/31 12:32:43;;;;;;;5.17;3.13;;;13.00;99.90;;;;;;5016791;28;20248;-74
2023/03/31 12:35:20;;;;;;;2.53;1.60;;;13.30;99.90;;;;;;5014677;28;20605;-77
2023/03/31 12:38:21;;;;;;;2.03;1.40;;;13.60;99.90;;;;;;5015440;28;20198;-76
2023/03/31 12:40:59;;;;;;;2.80;1.60;;;14.00;99.90;;;;;;5015065;28;20297;-75
2023/03/31 12:43:41;;;;;;;3.50;1.57;;;14.10;99.90;;;;;;5009183;28;20240;-77
2023/03/31 12:46:23;;;;;;;2.73;1.60;;;14.00;99.90;;;;;;4995066;28;20206;-76
2023/03/31 12:49:13;;;;;;;2.63;1.20;;;14.30;99.90;;;;;;4995378;28;20306;-75
2023/03/31 12:51:58;;;;;;;3.73;1.60;;;14.50;99.90;;;;;;4994779;28;20317;-75
2023/03/31 12:54:50;;;;;;;2.97;1.20;;;14.50;99.90;;;;;;4996047;28;20205;-78
2023/03/31 12:57:23;;;;;;;3.03;1.53;;;14.30;99.90;;;;;;4977977;28;20210;-74
2023/03/31 13:00:20;;;;;;;3.67;1.63;;;14.30;99.90;;;;;;5010587;28;20580;-77
2023/03/31 13:02:49;;;;;;;4.43;1.60;;;14.30;99.90;;;;;;5015059;28;20221;-74
2023/03/31 13:05:47;;;;;;;2.77;1.40;;;14.30;99.90;;;;;;5014972;28;20209;-73
2023/03/31 13:08:50;;;;;;;4.43;1.60;;;14.20;99.90;;;;;;5008209;28;20667;-74
2023/03/31 13:11:20;;;;;;;4.23;1.73;;;14.00;99.90;;;;;;4998707;28;20230;-77
2023/03/31 13:13:59;;;;;;;2.63;1.53;;;13.80;99.90;;;;;;4994987;28;20221;-74
2023/03/31 13:16:30;;;;;;;5.33;1.70;;;13.70;99.90;;;;;;4996447;28;20580;-78
2023/03/31 13:19:01;;;;;;;2.67;1.67;;;13.70;99.90;;;;;;4995659;28;20730;-75
2023/03/31 13:21:30;;;;;;;2.40;1.60;;;14.00;99.90;;;;;;4994270;28;20743;-73